Time;durP1;ratioP1;P1;durP2;ratioP2;P2;SDS_P1;SDS_P2;PMS_P1;PMS_P2;Temp;Humidity;BMP_temperature;BMP_pressure;BME280_temperature;BME280_humidity;BME280_pressure;Samples;Min_cycle;Max_cycle;Signal;HPM_P1;HPM_P2
2022/11/28 00:01:38;;;;;;;19.73;10.48;;;1.40;99.90;;;;;;5024719;28;20041;-74
2022/11/28 00:04:04;;;;;;;18.95;9.27;;;1.40;99.90;;;;;;5019270;28;20034;-74
2022/11/28 00:06:30;;;;;;;19.42;9.30;;;1.40;99.90;;;;;;5023274;28;20051;-74
2022/11/28 00:08:59;;;;;;;14.65;8.27;;;1.40;99.90;;;;;;5018458;28;20486;-74
2022/11/28 00:11:25;;;;;;;16.05;8.48;;;1.40;99.90;;;;;;5018520;28;20021;-74
2022/11/28 00:13:51;;;;;;;13.63;8.82;;;1.40;99.90;;;;;;5010701;28;20397;-74
2022/11/28 00:16:20;;;;;;;12.32;7.28;;;1.50;99.90;;;;;;5017167;28;20030;-74
2022/11/28 00:18:45;;;;;;;;;;;1.50;99.90;;;;;;5022868;28;20033;-74
2022/11/28 00:21:13;;;;;;;15.30;8.52;;;1.60;99.90;;;;;;5020251;28;19924;-74
2022/11/28 00:23:40;;;;;;;14.32;7.65;;;1.50;99.90;;;;;;5020231;28;20018;-74
2022/11/28 00:26:12;;;;;;;15.25;7.72;;;1.50;99.90;;;;;;5017205;28;20062;-74
2022/11/28 00:28:39;;;;;;;16.60;8.48;;;1.60;99.90;;;;;;5030237;28;20037;-74
2022/11/28 00:31:05;;;;;;;13.70;7.55;;;1.60;99.90;;;;;;5021986;28;20392;-74
2022/11/28 00:33:32;;;;;;;16.95;8.75;;;1.50;99.90;;;;;;5019139;28;20050;-74
2022/11/28 00:36:02;;;;;;;18.50;9.80;;;1.50;99.90;;;;;;5019144;28;20090;-75
2022/11/28 00:38:28;;;;;;;19.13;9.52;;;1.50;99.90;;;;;;5034199;28;20034;-74
2022/11/28 00:41:02;;;;;;;13.85;8.65;;;1.50;99.90;;;;;;5022900;28;20034;-75
2022/11/28 00:43:28;;;;;;;16.88;9.52;;;1.50;99.90;;;;;;5007887;28;20034;-74
2022/11/28 00:45:54;;;;;;;15.88;9.02;;;1.50;99.90;;;;;;5035903;28;20569;-75
2022/11/28 00:48:20;;;;;;;22.63;10.20;;;1.50;99.90;;;;;;5013289;28;20073;-75
2022/11/28 00:50:45;;;;;;;18.42;8.45;;;1.50;99.90;;;;;;5016100;28;20065;-74
2022/11/28 00:53:11;;;;;;;13.98;8.00;;;1.50;99.90;;;;;;5016790;28;20452;-75
2022/11/28 00:55:40;;;;;;;17.50;8.57;;;1.50;99.90;;;;;;5018344;28;20026;-73
2022/11/28 00:58:06;;;;;;;18.98;8.68;;;1.50;99.90;;;;;;5012857;28;20049;-75
2022/11/28 01:00:32;;;;;;;14.93;9.02;;;1.60;99.90;;;;;;5019129;28;20041;-75
2022/11/28 01:02:58;;;;;;;15.82;8.30;;;1.60;99.90;;;;;;5023488;28;20108;-75
2022/11/28 01:05:24;;;;;;;17.75;9.50;;;1.50;99.90;;;;;;5016899;28;20042;-75
2022/11/28 01:07:50;;;;;;;17.23;8.65;;;1.60;99.90;;;;;;5020506;28;20047;-74
2022/11/28 01:10:16;;;;;;;18.25;9.40;;;1.60;99.90;;;;;;5019142;28;20038;-74
2022/11/28 01:12:41;;;;;;;16.42;10.15;;;1.50;99.90;;;;;;5007252;28;20030;-74
2022/11/28 01:15:10;;;;;;;20.88;10.13;;;1.50;99.90;;;;;;5014959;28;20044;-75
2022/11/28 01:17:36;;;;;;;18.75;10.15;;;1.50;99.90;;;;;;5009455;28;20097;-74
2022/11/28 01:20:04;;;;;;;18.13;8.80;;;1.50;99.90;;;;;;5020665;28;20034;-74
2022/11/28 01:22:29;;;;;;;16.70;8.73;;;1.50;99.90;;;;;;5016264;28;20091;-73
2022/11/28 01:24:55;;;;;;;15.43;8.32;;;1.50;99.90;;;;;;5010931;28;20045;-75
2022/11/28 01:27:20;;;;;;;20.63;9.00;;;1.50;99.90;;;;;;5010065;28;20585;-74
2022/11/28 01:29:46;;;;;;;15.90;9.27;;;1.40;99.90;;;;;;5014510;28;20138;-75
2022/11/28 01:32:12;;;;;;;16.77;8.55;;;1.50;99.90;;;;;;5016400;28;20049;-74
2022/11/28 01:34:37;;;;;;;15.88;8.07;;;1.50;99.90;;;;;;5023872;28;20513;-74
2022/11/28 01:37:03;;;;;;;23.33;10.15;;;1.50;99.90;;;;;;5024571;28;20037;-75
2022/11/28 01:39:28;;;;;;;18.10;9.30;;;1.50;99.90;;;;;;5009838;28;20061;-74
2022/11/28 01:41:54;;;;;;;20.50;9.07;;;1.50;99.90;;;;;;5011013;28;20040;-74
2022/11/28 01:44:19;;;;;;;15.60;8.13;;;1.50;99.90;;;;;;5010831;28;20568;-74
2022/11/28 01:46:45;;;;;;;17.73;9.68;;;1.50;99.90;;;;;;5008878;28;20049;-74
2022/11/28 01:49:20;;;;;;;11.63;6.43;;;1.50;99.90;;;;;;5016356;28;20041;-75
2022/11/28 01:51:49;;;;;;;17.70;9.38;;;1.50;99.90;;;;;;5008023;28;20037;-75
2022/11/28 01:54:17;;;;;;;19.30;9.75;;;1.60;99.90;;;;;;5012153;28;20037;-74
2022/11/28 01:56:55;;;;;;;15.95;8.82;;;1.50;99.90;;;;;;5009237;28;20026;-74
2022/11/28 01:59:25;;;;;;;24.02;10.38;;;1.50;99.90;;;;;;5008592;28;20049;-74
2022/11/28 02:01:51;;;;;;;17.02;8.82;;;1.60;99.90;;;;;;5018342;28;20050;-78
2022/11/28 02:04:17;;;;;;;16.88;8.65;;;1.60;99.90;;;;;;5026191;28;20094;-78
2022/11/28 02:06:43;;;;;;;18.98;9.55;;;1.60;99.90;;;;;;5030191;28;20030;-78
2022/11/28 02:09:13;;;;;;;17.42;8.45;;;1.60;99.90;;;;;;5027834;28;20034;-78
2022/11/28 02:12:19;;;;;;;15.27;7.65;;;1.60;99.90;;;;;;5023207;28;20096;-78
2022/11/28 02:15:11;;;;;;;16.65;8.63;;;1.60;99.90;;;;;;5015058;28;20045;-77
2022/11/28 02:17:43;;;;;;;15.60;7.85;;;1.60;99.90;;;;;;5019227;28;20045;-78
2022/11/28 02:20:26;;;;;;;11.57;6.80;;;1.60;99.90;;;;;;5018945;28;20049;-77
2022/11/28 02:23:09;;;;;;;7.63;4.43;;;1.60;99.90;;;;;;5030174;28;20037;-78
2022/11/28 02:26:11;;;;;;;16.27;9.52;;;1.50;99.90;;;;;;5013778;28;20038;-77
2022/11/28 02:28:45;;;;;;;18.27;9.93;;;1.60;99.90;;;;;;5031633;28;20061;-77
2022/11/28 02:31:35;;;;;;;15.02;8.52;;;1.50;99.90;;;;;;5017811;28;20045;-77
2022/11/28 02:34:12;;;;;;;23.77;11.05;;;1.60;99.90;;;;;;5016240;28;20025;-78
2022/11/28 02:36:50;;;;;;;18.48;9.52;;;1.50;99.90;;;;;;5013186;28;20032;-78
2022/11/28 02:40:05;;;;;;;15.25;8.43;;;1.50;99.90;;;;;;5015883;28;20098;-78
2022/11/28 02:42:55;;;;;;;22.13;11.52;;;1.50;99.90;;;;;;5004736;28;20556;-77
2022/11/28 02:45:33;;;;;;;20.40;9.93;;;1.50;99.90;;;;;;5029224;28;20044;-78
2022/11/28 02:48:13;;;;;;;17.98;8.88;;;1.50;99.90;;;;;;5021244;28;20072;-78
2022/11/28 02:50:50;;;;;;;8.13;6.20;;;1.40;99.90;;;;;;5016535;28;20390;-78
2022/11/28 02:53:20;;;;;;;13.30;8.32;;;1.40;99.90;;;;;;5016711;28;20037;-78
2022/11/28 02:55:46;;;;;;;17.40;8.68;;;1.40;99.90;;;;;;5020542;28;20038;-78
2022/11/28 02:58:12;;;;;;;8.38;4.93;;;1.40;99.90;;;;;;5026955;28;20060;-78
2022/11/28 03:00:40;;;;;;;16.30;9.18;;;1.40;99.90;;;;;;5014289;28;20033;-78
2022/11/28 03:03:20;;;;;;;18.98;9.00;;;1.50;99.90;;;;;;5011335;28;20022;-77
2022/11/28 03:06:05;;;;;;;18.42;8.35;;;1.50;99.90;;;;;;5010647;28;20055;-77
2022/11/28 03:08:45;;;;;;;20.02;9.35;;;1.50;99.90;;;;;;5012549;28;20486;-77
2022/11/28 03:11:37;;;;;;;14.57;7.97;;;1.40;99.90;;;;;;5024156;28;20056;-78
2022/11/28 03:14:13;;;;;;;16.33;8.27;;;1.40;99.90;;;;;;5040297;28;20096;-78
2022/11/28 03:17:00;;;;;;;17.92;8.60;;;1.40;99.90;;;;;;5014669;28;20029;-77
2022/11/28 03:19:36;;;;;;;16.33;9.93;;;1.40;99.90;;;;;;5025536;28;20029;-76
2022/11/28 03:22:34;;;;;;;20.55;10.02;;;1.30;99.90;;;;;;5015835;28;20037;-76
2022/11/28 03:25:27;;;;;;;20.15;10.50;;;1.30;99.90;;;;;;5016379;28;20046;-76
2022/11/28 03:28:01;;;;;;;19.20;9.68;;;1.30;99.90;;;;;;5020219;28;20444;-76
2022/11/28 03:30:44;;;;;;;17.92;8.95;;;1.30;99.90;;;;;;5029520;28;20036;-77
2022/11/28 03:33:12;;;;;;;20.52;9.90;;;1.30;99.90;;;;;;5015068;28;20054;-76
2022/11/28 03:35:45;;;;;;;9.73;6.57;;;1.40;99.90;;;;;;5025134;28;20021;-76
2022/11/28 03:38:30;;;;;;;5.60;4.53;;;1.40;99.90;;;;;;5012817;28;20091;-77
2022/11/28 03:41:01;;;;;;;10.98;4.28;;;1.40;99.90;;;;;;5017076;28;20032;-76
2022/11/28 03:43:33;;;;;;;6.28;4.05;;;1.50;99.90;;;;;;5015178;28;20040;-76
2022/11/28 03:46:05;;;;;;;7.80;4.75;;;1.40;99.90;;;;;;5013051;28;20053;-76
2022/11/28 03:48:34;;;;;;;4.68;3.92;;;1.50;99.90;;;;;;5027874;28;20471;-76
2022/11/28 03:51:00;;;;;;;;;;;1.50;99.90;;;;;;5019051;28;20816;-76
2022/11/28 03:53:41;;;;;;;10.02;5.32;;;1.50;99.90;;;;;;5011935;28;19965;-76
2022/11/28 03:56:18;;;;;;;13.70;7.30;;;1.60;99.90;;;;;;5014152;28;20069;-76
2022/11/28 03:58:55;;;;;;;5.60;4.30;;;1.60;99.90;;;;;;5014835;28;20071;-76
2022/11/28 04:01:30;;;;;;;15.68;7.07;;;1.60;99.90;;;;;;5012665;28;20054;-76
2022/11/28 04:04:30;;;;;;;11.68;7.35;;;1.60;99.90;;;;;;5019374;28;20601;-76
2022/11/28 04:07:08;;;;;;;4.55;4.18;;;1.60;99.90;;;;;;4992428;28;20022;-77
2022/11/28 04:09:46;;;;;;;13.40;8.40;;;1.70;99.90;;;;;;5029391;28;20041;-77
2022/11/28 04:12:30;;;;;;;15.60;7.45;;;1.60;99.90;;;;;;5033038;28;20042;-76
2022/11/28 04:15:02;;;;;;;16.58;9.60;;;1.70;99.90;;;;;;5015724;28;20042;-77
2022/11/28 04:17:37;;;;;;;17.10;8.98;;;1.60;99.90;;;;;;5015774;28;20041;-77
2022/11/28 04:20:16;;;;;;;14.70;8.18;;;1.60;99.90;;;;;;5014350;28;20050;-76
2022/11/28 04:22:47;;;;;;;18.98;8.55;;;1.60;99.90;;;;;;5019378;28;20037;-76
2022/11/28 04:25:16;;;;;;;16.80;9.38;;;1.50;99.90;;;;;;5015602;28;20034;-76
2022/11/28 04:28:00;;;;;;;19.00;8.70;;;1.50;99.90;;;;;;5020309;28;20029;-77
2022/11/28 04:30:26;;;;;;;18.52;9.60;;;1.50;99.90;;;;;;5014505;28;20477;-76
2022/11/28 04:32:58;;;;;;;17.60;9.40;;;1.50;99.90;;;;;;5025853;28;20046;-76
2022/11/28 04:35:30;;;;;;;15.75;7.63;;;1.60;99.90;;;;;;5019716;28;20036;-76
2022/11/28 04:37:59;;;;;;;11.02;7.43;;;1.60;99.90;;;;;;5019877;28;20026;-76
2022/11/28 04:40:27;;;;;;;20.73;10.40;;;1.60;99.90;;;;;;5022171;28;20039;-76
2022/11/28 04:42:59;;;;;;;17.70;8.13;;;1.60;99.90;;;;;;5023280;28;20041;-76
2022/11/28 04:45:33;;;;;;;16.58;9.43;;;1.60;99.90;;;;;;5010784;28;20033;-76
2022/11/28 04:48:00;;;;;;;15.25;9.23;;;1.70;99.90;;;;;;5019761;28;20045;-76
2022/11/28 04:50:35;;;;;;;15.70;8.85;;;1.70;99.90;;;;;;5023177;28;20052;-76
2022/11/28 04:53:17;;;;;;;16.20;7.90;;;1.70;99.90;;;;;;5020239;28;20121;-76
2022/11/28 04:55:47;;;;;;;16.63;7.60;;;1.60;99.90;;;;;;5026577;28;20073;-76
2022/11/28 04:58:18;;;;;;;16.00;8.60;;;1.70;99.90;;;;;;5020234;28;20043;-76
2022/11/28 05:00:45;;;;;;;17.83;8.25;;;1.70;99.90;;;;;;5018989;28;20046;-76
2022/11/28 05:03:11;;;;;;;13.05;8.20;;;1.70;99.90;;;;;;5023003;28;20038;-76
2022/11/28 05:05:46;;;;;;;18.92;10.00;;;1.70;99.90;;;;;;5044186;28;20034;-76
2022/11/28 05:08:12;;;;;;;20.83;10.45;;;1.70;99.90;;;;;;5016558;28;20038;-76
2022/11/28 05:10:38;;;;;;;18.15;9.88;;;1.70;99.90;;;;;;5013509;28;20045;-76
2022/11/28 05:13:04;;;;;;;17.10;9.77;;;1.70;99.90;;;;;;5013126;28;20010;-74
2022/11/28 05:15:30;;;;;;;17.50;9.98;;;1.60;99.90;;;;;;5026943;28;20026;-76
2022/11/28 05:17:55;;;;;;;9.55;5.97;;;1.60;99.90;;;;;;5016970;28;20108;-76
2022/11/28 05:20:21;;;;;;;3.40;2.95;;;1.70;99.90;;;;;;5023464;28;20367;-76
2022/11/28 05:22:46;;;;;;;8.73;5.60;;;1.70;99.90;;;;;;5023154;28;20059;-76
2022/11/28 05:25:12;;;;;;;9.57;5.70;;;1.70;99.90;;;;;;5013256;28;20038;-76
2022/11/28 05:27:37;;;;;;;11.38;6.65;;;1.70;99.90;;;;;;5018906;28;20478;-77
2022/11/28 05:30:05;;;;;;;16.88;10.00;;;1.80;99.90;;;;;;5016376;28;20036;-76
2022/11/28 05:32:31;;;;;;;16.23;8.55;;;1.80;99.90;;;;;;5014721;28;20717;-76
2022/11/28 05:34:57;;;;;;;14.65;8.48;;;1.80;99.90;;;;;;5020673;28;20482;-76
2022/11/28 05:37:24;;;;;;;18.02;7.93;;;1.80;99.90;;;;;;5020249;28;20033;-76
2022/11/28 05:39:50;;;;;;;13.98;7.53;;;1.80;99.90;;;;;;5019823;28;20030;-75
2022/11/28 05:42:16;;;;;;;13.80;8.02;;;1.80;99.90;;;;;;5016290;28;20034;-76
2022/11/28 05:44:41;;;;;;;13.15;7.03;;;1.90;99.90;;;;;;5026163;28;20044;-77
2022/11/28 05:47:07;;;;;;;16.30;9.00;;;1.90;99.90;;;;;;5021385;28;20561;-76
2022/11/28 05:49:33;;;;;;;13.65;8.75;;;1.80;99.90;;;;;;5024007;28;20061;-76
2022/11/28 05:51:59;;;;;;;13.82;8.45;;;1.80;99.90;;;;;;5032791;28;20100;-76
2022/11/28 05:54:24;;;;;;;12.68;7.57;;;1.80;99.90;;;;;;5017812;28;20032;-76
2022/11/28 05:56:50;;;;;;;18.30;9.75;;;1.90;99.90;;;;;;5023689;28;21186;-76
2022/11/28 05:59:16;;;;;;;9.57;6.38;;;1.90;99.90;;;;;;5016044;28;20030;-76
2022/11/28 06:01:41;;;;;;;13.00;7.45;;;1.90;99.90;;;;;;5018488;28;20590;-76
2022/11/28 06:04:07;;;;;;;17.42;9.15;;;1.80;99.90;;;;;;5017712;28;20068;-76
2022/11/28 06:06:34;;;;;;;16.45;8.52;;;1.80;99.90;;;;;;5020522;28;20497;-76
2022/11/28 06:09:00;;;;;;;11.20;5.38;;;1.90;99.90;;;;;;5022103;28;20021;-77
2022/11/28 06:11:29;;;;;;;7.65;4.65;;;1.90;99.90;;;;;;5034965;28;20074;-76
2022/11/28 06:13:54;;;;;;;15.85;8.90;;;1.90;99.90;;;;;;5026450;28;20061;-77
2022/11/28 06:16:23;;;;;;;13.85;7.90;;;1.90;99.90;;;;;;5015264;28;20565;-77
2022/11/28 06:18:53;;;;;;;10.57;7.13;;;1.90;99.90;;;;;;5020118;28;20089;-77
2022/11/28 06:21:19;;;;;;;12.65;8.43;;;1.90;99.90;;;;;;5022277;28;20068;-77
2022/11/28 06:23:45;;;;;;;13.18;7.75;;;1.90;99.90;;;;;;5021641;28;20109;-76
2022/11/28 06:26:13;;;;;;;14.07;8.52;;;1.90;99.90;;;;;;5024107;28;20029;-77
2022/11/28 06:28:39;;;;;;;15.97;8.10;;;1.90;99.90;;;;;;5022086;28;20061;-78
2022/11/28 06:31:14;;;;;;;13.85;7.32;;;2.00;99.90;;;;;;5023202;28;20037;-77
2022/11/28 06:33:40;;;;;;;3.53;3.00;;;2.00;99.90;;;;;;5013781;28;20045;-77
2022/11/28 06:36:07;;;;;;;15.38;9.05;;;2.00;99.90;;;;;;5013247;28;20786;-77
2022/11/28 06:38:33;;;;;;;13.65;6.80;;;2.00;99.90;;;;;;5003652;28;20034;-78
2022/11/28 06:41:05;;;;;;;15.80;8.88;;;1.90;99.90;;;;;;5004966;28;20501;-77
2022/11/28 06:43:31;;;;;;;13.25;6.60;;;2.00;99.90;;;;;;5018380;28;20132;-77
2022/11/28 06:45:57;;;;;;;17.35;8.82;;;2.00;99.90;;;;;;5018971;28;20076;-77
2022/11/28 06:48:23;;;;;;;11.93;6.97;;;2.00;99.90;;;;;;5015697;28;20124;-77
2022/11/28 06:50:48;;;;;;;13.15;7.78;;;2.00;99.90;;;;;;5023009;28;20037;-78
2022/11/28 06:53:15;;;;;;;13.07;7.90;;;1.90;99.90;;;;;;5024271;28;20098;-78
2022/11/28 06:55:41;;;;;;;16.10;9.18;;;1.90;99.90;;;;;;5018629;28;20048;-78
2022/11/28 06:58:07;;;;;;;14.43;8.02;;;2.00;99.90;;;;;;5021217;28;20034;-77
2022/11/28 07:00:33;;;;;;;14.18;8.68;;;2.00;99.90;;;;;;5014920;28;20068;-79
2022/11/28 07:02:59;;;;;;;15.48;8.70;;;2.00;99.90;;;;;;5021834;28;20037;-78
2022/11/28 07:05:26;;;;;;;10.95;6.97;;;1.90;99.90;;;;;;5043046;23;20058;-29
2022/11/28 07:07:53;;;;;;;13.53;7.23;;;1.90;99.90;;;;;;5017086;28;20021;-33
2022/11/28 07:10:19;;;;;;;17.20;9.73;;;1.90;99.90;;;;;;5002665;28;20042;-31
2022/11/28 07:12:45;;;;;;;14.23;7.78;;;2.00;99.90;;;;;;5000942;28;20109;-30
2022/11/28 07:15:11;;;;;;;12.98;7.60;;;2.00;99.90;;;;;;5017630;28;20036;-32
2022/11/28 07:17:37;;;;;;;13.20;8.13;;;1.90;99.90;;;;;;5003597;28;20026;-29
2022/11/28 07:20:04;;;;;;;14.10;6.88;;;1.90;99.90;;;;;;5002537;28;20034;-30
2022/11/28 07:22:30;;;;;;;15.63;8.73;;;2.00;99.90;;;;;;5007528;28;20029;-30
2022/11/28 07:24:56;;;;;;;14.65;7.72;;;2.00;99.90;;;;;;5006009;28;20045;-29
2022/11/28 07:27:21;;;;;;;18.92;9.50;;;2.10;99.90;;;;;;5006410;28;20025;-29
2022/11/28 07:29:47;;;;;;;13.30;6.88;;;2.00;99.90;;;;;;5005051;28;20034;-32
2022/11/28 07:32:12;;;;;;;13.68;8.18;;;2.10;99.90;;;;;;5007596;28;20493;-30
2022/11/28 07:34:40;;;;;;;14.25;8.50;;;2.10;99.90;;;;;;5005777;28;20142;-29
2022/11/28 07:37:06;;;;;;;16.20;8.77;;;2.20;99.90;;;;;;5005691;28;20121;-31
2022/11/28 07:39:31;;;;;;;14.32;7.55;;;2.20;99.90;;;;;;5006919;28;20472;-29
2022/11/28 07:41:57;;;;;;;14.48;7.88;;;2.20;99.90;;;;;;5006275;28;20024;-31
2022/11/28 07:44:22;;;;;;;13.98;8.07;;;2.30;99.90;;;;;;5004405;28;20514;-29
2022/11/28 07:46:48;;;;;;;12.05;7.25;;;2.30;99.90;;;;;;5021587;28;20057;-33
2022/11/28 07:49:14;;;;;;;17.70;8.45;;;2.30;99.90;;;;;;4998919;28;20394;-33
2022/11/28 07:51:40;;;;;;;14.40;7.90;;;2.30;99.90;;;;;;5001962;28;20406;-30
2022/11/28 07:54:06;;;;;;;17.60;9.60;;;2.30;99.90;;;;;;5004230;28;20116;-32
2022/11/28 07:56:34;;;;;;;17.45;8.75;;;2.30;99.90;;;;;;5007145;28;20471;-29
2022/11/28 07:59:00;;;;;;;16.83;9.00;;;2.30;99.90;;;;;;5007148;28;20056;-30
2022/11/28 08:01:29;;;;;;;15.57;8.55;;;2.40;99.90;;;;;;5010067;28;20038;-30
2022/11/28 08:03:56;;;;;;;14.05;7.63;;;2.40;99.90;;;;;;5010119;28;20061;-29
2022/11/28 08:06:25;;;;;;;11.93;7.47;;;2.40;99.90;;;;;;5005009;28;20061;-32
2022/11/28 08:08:51;;;;;;;10.77;6.60;;;2.40;99.90;;;;;;5002964;28;20080;-34
2022/11/28 08:11:19;;;;;;;15.15;7.20;;;2.30;99.90;;;;;;5005122;28;20147;-32
2022/11/28 08:13:45;;;;;;;16.50;8.05;;;2.30;99.90;;;;;;4998345;28;20040;-31
2022/11/28 08:16:18;;;;;;;12.15;7.38;;;2.30;99.90;;;;;;5006057;28;20041;-28
2022/11/28 08:18:44;;;;;;;13.45;7.78;;;2.30;99.90;;;;;;5008196;28;20037;-29
2022/11/28 08:21:12;;;;;;;9.45;5.55;;;2.30;99.90;;;;;;5009162;28;20029;-29
2022/11/28 08:23:39;;;;;;;18.52;8.93;;;2.40;99.90;;;;;;5006760;28;20029;-30
2022/11/28 08:26:08;;;;;;;15.52;8.98;;;2.30;99.90;;;;;;5008759;28;20056;-29
2022/11/28 08:28:34;;;;;;;15.10;7.78;;;2.40;99.90;;;;;;5005662;28;20386;-32
2022/11/28 08:31:06;;;;;;;14.68;8.77;;;2.40;99.90;;;;;;5008129;28;20061;-31
2022/11/28 08:33:32;;;;;;;17.05;8.60;;;2.40;99.90;;;;;;5008272;28;20045;-30
2022/11/28 08:35:58;;;;;;;18.38;9.68;;;2.40;99.90;;;;;;5010210;28;20026;-29
2022/11/28 08:38:23;;;;;;;21.77;9.82;;;2.50;99.90;;;;;;5010459;28;20033;-29
2022/11/28 08:40:49;;;;;;;17.90;8.95;;;2.50;99.90;;;;;;5009188;28;20028;-29
2022/11/28 08:43:14;;;;;;;16.73;7.93;;;2.50;99.90;;;;;;5006257;28;20105;-32
2022/11/28 08:45:40;;;;;;;24.15;10.60;;;2.50;99.90;;;;;;5009299;28;20076;-29
2022/11/28 08:48:06;;;;;;;19.17;8.82;;;2.50;99.90;;;;;;5004128;28;20497;-30
2022/11/28 08:50:31;;;;;;;17.55;10.38;;;2.60;99.90;;;;;;5010023;28;20101;-30
2022/11/28 08:52:57;;;;;;;16.33;9.23;;;2.60;99.90;;;;;;5007491;28;20414;-30
2022/11/28 08:55:22;;;;;;;16.60;9.95;;;2.70;99.90;;;;;;5002435;28;20522;-31
2022/11/28 08:57:48;;;;;;;16.88;8.38;;;2.70;99.90;;;;;;5007221;28;20029;-30
2022/11/28 09:00:14;;;;;;;18.05;9.70;;;2.70;99.90;;;;;;5003203;28;20038;-33
2022/11/28 09:02:40;;;;;;;16.63;9.45;;;2.70;99.90;;;;;;5008977;28;20145;-31
2022/11/28 09:05:06;;;;;;;14.55;8.98;;;2.60;99.90;;;;;;5007919;28;20115;-33
2022/11/28 09:07:32;;;;;;;18.23;9.73;;;2.70;99.90;;;;;;5006352;28;20025;-30
2022/11/28 09:09:57;;;;;;;14.07;8.20;;;2.70;99.90;;;;;;5010144;28;20037;-32
2022/11/28 09:12:23;;;;;;;15.95;11.13;;;2.70;99.90;;;;;;5007455;28;20538;-30
2022/11/28 09:14:48;;;;;;;17.92;8.60;;;2.80;99.90;;;;;;5005523;28;20026;-30
2022/11/28 09:17:14;;;;;;;19.25;10.13;;;2.80;99.90;;;;;;5010118;28;20037;-30
2022/11/28 09:19:41;;;;;;;20.23;9.20;;;2.90;99.90;;;;;;5003974;28;20029;-31
2022/11/28 09:22:07;;;;;;;16.48;7.97;;;2.90;99.90;;;;;;5008686;28;20029;-29
2022/11/28 09:24:33;;;;;;;18.65;9.30;;;3.00;99.90;;;;;;5006514;28;20052;-33
2022/11/28 09:26:58;;;;;;;17.42;9.77;;;3.10;99.90;;;;;;5007511;28;20384;-33
2022/11/28 09:29:24;;;;;;;16.83;9.43;;;3.00;99.90;;;;;;5006539;28;20034;-31
2022/11/28 09:31:50;;;;;;;18.25;9.32;;;3.00;99.90;;;;;;5005128;28;20059;-29
2022/11/28 09:34:15;;;;;;;15.68;8.20;;;2.90;99.90;;;;;;5009914;28;20121;-30
2022/11/28 09:36:41;;;;;;;16.10;8.43;;;2.90;99.90;;;;;;5004197;28;20061;-28
2022/11/28 09:39:06;;;;;;;19.10;9.80;;;3.00;99.90;;;;;;5008429;28;20111;-29
2022/11/28 09:41:57;;;;;;;14.52;8.20;;;3.10;99.90;;;;;;5007599;28;20041;-30
2022/11/28 09:44:39;;;;;;;19.55;9.95;;;3.10;99.90;;;;;;5006330;28;20518;-29
2022/11/28 09:47:18;;;;;;;16.70;9.88;;;3.20;99.90;;;;;;5003727;28;20037;-28
2022/11/28 09:49:49;;;;;;;17.45;9.50;;;3.20;99.90;;;;;;5007583;28;20076;-29
2022/11/28 09:52:56;;;;;;;13.48;8.23;;;3.30;99.90;;;;;;5007575;28;20018;-28
2022/11/28 09:55:40;;;;;;;13.40;8.13;;;3.30;99.90;;;;;;5004456;28;20105;-29
2022/11/28 09:58:15;;;;;;;9.35;5.97;;;3.30;99.90;;;;;;5006057;28;20280;-32
2022/11/28 10:00:47;;;;;;;14.05;7.35;;;3.40;99.90;;;;;;5005625;28;20035;-30
2022/11/28 10:03:16;;;;;;;15.50;8.30;;;3.30;99.90;;;;;;5008283;28;20034;-32
2022/11/28 10:06:02;;;;;;;17.65;9.48;;;3.30;99.90;;;;;;5004443;28;20517;-30
2022/11/28 10:08:35;;;;;;;14.68;7.82;;;3.40;99.90;;;;;;5006862;28;20398;-28
2022/11/28 10:11:10;;;;;;;13.10;7.68;;;3.50;99.90;;;;;;5004838;28;20039;-31
2022/11/28 10:14:16;;;;;;;15.38;8.57;;;3.50;99.90;;;;;;5008380;28;20390;-30
2022/11/28 10:16:55;;;;;;;14.68;8.70;;;3.60;99.90;;;;;;5006549;28;20022;-28
2022/11/28 10:19:49;;;;;;;16.42;8.52;;;3.70;99.90;;;;;;5006842;28;20046;-29
2022/11/28 10:22:19;;;;;;;14.15;8.50;;;3.70;99.90;;;;;;4996148;28;20117;-29
2022/11/28 10:24:54;;;;;;;15.68;8.70;;;3.80;99.90;;;;;;5007728;28;20410;-29
2022/11/28 10:27:24;;;;;;;12.52;8.27;;;3.70;99.90;;;;;;5003563;28;20022;-29
2022/11/28 10:30:01;;;;;;;13.75;7.90;;;3.70;99.90;;;;;;5005572;28;20092;-29
2022/11/28 10:32:41;;;;;;;18.83;9.80;;;3.80;99.90;;;;;;5003248;28;20052;-31
2022/11/28 10:35:34;;;;;;;15.80;9.57;;;3.80;99.90;;;;;;5005012;28;20113;-32
2022/11/28 10:38:00;;;;;;;12.88;7.88;;;3.90;99.90;;;;;;5007038;28;20049;-29
2022/11/28 10:40:34;;;;;;;15.73;9.63;;;4.00;99.90;;;;;;5007058;28;20077;-35
2022/11/28 10:43:11;;;;;;;15.30;8.93;;;3.90;99.90;;;;;;5017611;28;20054;-29
2022/11/28 10:45:45;;;;;;;13.45;8.05;;;4.00;99.90;;;;;;5001559;28;20034;-30
2022/11/28 10:48:14;;;;;;;12.57;7.95;;;4.10;99.90;;;;;;5008684;28;20396;-30
2022/11/28 10:51:03;;;;;;;11.88;7.10;;;4.00;99.90;;;;;;5004436;28;20105;-32
2022/11/28 10:53:50;;;;;;;9.85;6.88;;;4.00;99.90;;;;;;5005636;28;20036;-33
2022/11/28 10:56:35;;;;;;;12.73;8.00;;;4.00;99.90;;;;;;5003061;28;20072;-29
2022/11/28 10:59:28;;;;;;;13.48;8.23;;;4.10;99.90;;;;;;5005894;28;20786;-32
2022/11/28 11:01:55;;;;;;;14.50;8.35;;;4.20;99.90;;;;;;5003957;28;20055;-32
2022/11/28 11:04:25;;;;;;;13.32;8.45;;;4.10;99.90;;;;;;5007477;28;20493;-29
2022/11/28 11:07:14;;;;;;;14.20;8.25;;;4.10;99.90;;;;;;5002418;28;20052;-29
2022/11/28 11:09:42;;;;;;;13.55;8.30;;;4.20;99.90;;;;;;5001595;28;20407;-32
2022/11/28 11:12:20;;;;;;;14.10;8.30;;;4.20;99.90;;;;;;5007840;28;20049;-30
2022/11/28 11:14:46;;;;;;;13.50;8.95;;;4.20;99.90;;;;;;5006849;28;20309;-30
2022/11/28 11:17:28;;;;;;;14.02;8.27;;;4.30;99.90;;;;;;5006652;28;20041;-30
2022/11/28 11:19:54;;;;;;;13.30;8.73;;;4.30;99.90;;;;;;5003827;28;20029;-29
2022/11/28 11:22:30;;;;;;;13.63;8.48;;;4.30;99.90;;;;;;5008237;28;20018;-30
2022/11/28 11:25:18;;;;;;;13.90;8.48;;;4.30;99.90;;;;;;5005949;28;20034;-31
2022/11/28 11:27:47;;;;;;;;;;;4.40;99.90;;;;;;5002350;28;20456;-30
2022/11/28 11:30:37;;;;;;;12.55;7.10;;;4.40;99.90;;;;;;5003846;28;19913;-30
2022/11/28 11:33:05;;;;;;;21.98;8.65;;;4.50;99.90;;;;;;5004831;28;20050;-30
2022/11/28 11:35:42;;;;;;;11.68;7.95;;;4.50;99.90;;;;;;5005569;28;20037;-30
2022/11/28 11:38:21;;;;;;;9.43;7.07;;;4.60;99.90;;;;;;5003735;28;20034;-29
2022/11/28 11:40:48;;;;;;;10.57;6.45;;;4.60;99.90;;;;;;5004119;28;20037;-32
2022/11/28 11:43:26;;;;;;;8.93;6.35;;;4.70;99.90;;;;;;5003956;28;20034;-31
2022/11/28 11:46:03;;;;;;;10.32;7.05;;;4.70;99.90;;;;;;5007373;28;20033;-35
2022/11/28 11:48:40;;;;;;;10.48;6.38;;;4.70;99.90;;;;;;5005616;28;20165;-29
2022/11/28 11:51:27;;;;;;;8.60;6.07;;;4.70;99.90;;;;;;4995678;28;20554;-30
2022/11/28 11:54:04;;;;;;;9.15;6.00;;;4.70;99.90;;;;;;5011990;28;20066;-29
2022/11/28 11:56:35;;;;;;;12.85;7.20;;;4.80;99.90;;;;;;5005145;28;20032;-29
2022/11/28 11:59:06;;;;;;;9.23;6.40;;;4.80;99.90;;;;;;5003361;28;20030;-30
2022/11/28 12:01:34;;;;;;;11.55;7.82;;;4.80;99.90;;;;;;5002599;28;20457;-31
2022/11/28 12:04:05;;;;;;;10.40;7.75;;;4.90;99.90;;;;;;5003375;28;20498;-30
2022/11/28 12:06:40;;;;;;;13.32;6.97;;;4.90;99.90;;;;;;5005322;28;20095;-29
2022/11/28 12:09:30;;;;;;;15.70;7.65;;;4.90;99.90;;;;;;5005678;28;20030;-31
2022/11/28 12:12:06;;;;;;;11.88;6.60;;;5.00;99.90;;;;;;5002005;28;20148;-31
2022/11/28 12:14:34;;;;;;;9.05;6.30;;;5.00;99.90;;;;;;5006699;28;20026;-30
2022/11/28 12:17:34;;;;;;;9.18;6.35;;;5.00;99.90;;;;;;5002157;28;20041;-30
2022/11/28 12:20:18;;;;;;;8.98;5.57;;;5.10;99.90;;;;;;4997103;28;20037;-29
2022/11/28 12:23:03;;;;;;;8.25;5.65;;;5.00;99.90;;;;;;5005045;28;20026;-30
2022/11/28 12:25:41;;;;;;;11.48;6.82;;;5.00;99.90;;;;;;5001131;28;20057;-29
2022/11/28 12:28:19;;;;;;;10.80;5.93;;;5.00;99.90;;;;;;5004997;28;20057;-30
2022/11/28 12:31:15;;;;;;;15.27;7.00;;;5.00;99.90;;;;;;5005087;28;20045;-29
2022/11/28 12:34:18;;;;;;;12.57;6.78;;;5.10;99.90;;;;;;5007410;28;20084;-30
2022/11/28 12:36:56;;;;;;;11.20;7.22;;;5.10;99.90;;;;;;4982694;28;20638;-30
2022/11/28 12:39:43;;;;;;;14.10;7.15;;;5.20;99.90;;;;;;5005689;28;20030;-29
2022/11/28 12:42:32;;;;;;;11.77;7.18;;;5.20;99.90;;;;;;5001676;28;20030;-29
2022/11/28 12:45:23;;;;;;;15.10;10.82;;;5.20;99.90;;;;;;5005868;28;20053;-30
2022/11/28 12:47:53;;;;;;;11.80;7.55;;;5.20;99.90;;;;;;5005038;28;20478;-30
2022/11/28 12:50:28;;;;;;;12.75;6.60;;;5.30;99.90;;;;;;5008660;28;20045;-29
2022/11/28 12:53:00;;;;;;;10.75;6.25;;;5.30;99.90;;;;;;5005127;28;20066;-29
2022/11/28 12:55:40;;;;;;;11.43;6.68;;;5.40;99.90;;;;;;5010083;28;20026;-29
2022/11/28 12:58:32;;;;;;;10.05;7.03;;;5.40;99.90;;;;;;5006482;28;20041;-31
2022/11/28 13:01:31;;;;;;;12.10;7.18;;;5.40;99.90;;;;;;5008695;28;20465;-30
2022/11/28 13:04:24;;;;;;;9.07;6.28;;;5.40;99.90;;;;;;5006155;28;20033;-30
2022/11/28 13:07:15;;;;;;;9.05;6.55;;;5.40;99.90;;;;;;5006995;28;20042;-29
2022/11/28 13:09:47;;;;;;;8.75;6.57;;;5.40;99.90;;;;;;5007542;28;20072;-33
2022/11/28 13:12:28;;;;;;;11.98;6.72;;;5.50;99.90;;;;;;5007607;28;20062;-33
2022/11/28 13:15:06;;;;;;;11.38;8.55;;;5.60;99.90;;;;;;5005153;28;20506;-31